createdAt,value
2022-11-29T00:00:58.526Z,66.07
2022-11-29T00:03:26.192Z,86.88
2022-11-29T00:05:53.654Z,71.82
2022-11-29T00:08:21.470Z,85.25
2022-11-29T00:10:48.943Z,69.15
2022-11-29T00:13:16.370Z,78.07
2022-11-29T00:15:43.538Z,91.75
2022-11-29T00:18:10.655Z,76.50
2022-11-29T00:20:39.379Z,67.72
2022-11-29T00:23:06.589Z,82.68
2022-11-29T00:25:33.927Z,78.72
2022-11-29T00:28:01.130Z,70.28
2022-11-29T00:30:28.608Z,71.20
2022-11-29T00:32:55.787Z,85.80
2022-11-29T00:35:22.906Z,91.55
2022-11-29T00:37:50.087Z,77.93
2022-11-29T00:40:17.355Z,82.25
2022-11-29T00:42:44.503Z,77.10
2022-11-29T00:45:12.187Z,74.03
2022-11-29T00:47:39.312Z,77.57
2022-11-29T00:50:07.003Z,68.43
2022-11-29T00:52:34.138Z,77.50
2022-11-29T00:55:01.302Z,73.72
2022-11-29T00:57:28.523Z,83.45
2022-11-29T00:59:55.664Z,78.18
2022-11-29T01:02:22.961Z,75.82
2022-11-29T01:04:50.147Z,89.32
2022-11-29T01:07:17.389Z,102.03
2022-11-29T01:09:44.582Z,87.85
2022-11-29T01:12:11.798Z,80.18
2022-11-29T01:14:39.106Z,81.35
2022-11-29T01:17:06.304Z,77.43
2022-11-29T01:19:33.459Z,75.50
2022-11-29T01:22:00.629Z,84.97
2022-11-29T01:24:28.780Z,71.32
2022-11-29T01:26:56.007Z,77.50
2022-11-29T01:29:23.153Z,82.75
2022-11-29T01:31:50.303Z,79.40
2022-11-29T01:34:17.451Z,80.93
2022-11-29T01:36:44.600Z,78.72
2022-11-29T01:39:11.725Z,84.80
2022-11-29T01:41:38.910Z,79.18
2022-11-29T01:44:26.305Z,81.20
2022-11-29T01:46:54.492Z,77.18
2022-11-29T01:49:21.631Z,72.88
2022-11-29T01:51:53.632Z,80.65
2022-11-29T01:54:21.041Z,80.00
2022-11-29T01:56:49.920Z,76.82
2022-11-29T01:59:19.890Z,74.47
2022-11-29T02:01:47.055Z,74.07
2022-11-29T02:04:14.620Z,70.22
2022-11-29T02:06:42.142Z,86.50
2022-11-29T02:09:19.865Z,91.00
2022-11-29T02:11:59.052Z,84.90
2022-11-29T02:14:28.943Z,95.72
2022-11-29T02:17:01.375Z,97.15
2022-11-29T02:19:51.285Z,86.97
2022-11-29T02:22:30.668Z,78.60
2022-11-29T02:25:16.473Z,101.75
2022-11-29T02:27:46.656Z,93.82
2022-11-29T02:30:22.657Z,99.45
2022-11-29T02:33:05.460Z,100.10
2022-11-29T02:35:51.123Z,101.75
2022-11-29T02:40:45.302Z,101.30
2022-11-29T02:43:20.149Z,97.13
2022-11-29T02:46:06.788Z,98.75
2022-11-29T02:49:00.167Z,98.40
2022-11-29T02:51:36.004Z,98.35
2022-11-29T02:54:22.083Z,90.18
2022-11-29T02:56:49.252Z,105.75
2022-11-29T02:59:22.397Z,102.05
2022-11-29T03:01:56.638Z,108.32
2022-11-29T03:04:23.760Z,100.80
2022-11-29T03:06:55.317Z,97.72
2022-11-29T03:09:28.291Z,99.00
2022-11-29T03:12:04.364Z,101.13
2022-11-29T03:14:42.972Z,94.60
2022-11-29T03:17:10.324Z,94.05
2022-11-29T03:19:43.560Z,89.25
2022-11-29T03:22:19.623Z,96.55
2022-11-29T03:24:56.721Z,109.35
2022-11-29T03:27:30.166Z,105.97
2022-11-29T03:29:59.432Z,104.60
2022-11-29T03:32:33.922Z,106.10
2022-11-29T03:35:01.047Z,120.53
2022-11-29T03:37:43.265Z,114.45
2022-11-29T03:40:12.707Z,113.18
2022-11-29T03:42:52.405Z,122.97
2022-11-29T03:45:28.423Z,120.32
2022-11-29T03:47:59.919Z,119.28
2022-11-29T03:50:29.811Z,121.97
2022-11-29T03:53:00.785Z,147.55
2022-11-29T03:55:31.562Z,142.23
2022-11-29T03:58:19.504Z,145.25
2022-11-29T04:00:49.633Z,144.52
2022-11-29T04:03:35.323Z,158.75
2022-11-29T04:08:48.379Z,144.90
2022-11-29T04:11:15.558Z,141.57
2022-11-29T04:14:01.531Z,180.82
2022-11-29T04:17:04.239Z,155.32
2022-11-29T04:19:46.656Z,150.82
2022-11-29T04:22:16.627Z,169.88
2022-11-29T04:24:46.750Z,156.15
2022-11-29T04:27:24.144Z,169.70
2022-11-29T04:29:51.312Z,173.63
2022-11-29T04:32:21.204Z,177.75
2022-11-29T04:34:48.305Z,163.90
2022-11-29T04:37:23.478Z,170.00
2022-11-29T04:40:08.790Z,182.65
2022-11-29T04:42:48.023Z,175.45
2022-11-29T04:45:33.980Z,160.40
2022-11-29T04:48:07.126Z,158.95
2022-11-29T04:50:43.902Z,196.73
2022-11-29T04:53:11.022Z,176.50
2022-11-29T04:55:40.992Z,169.93
2022-11-29T04:58:25.029Z,188.07
2022-11-29T05:01:06.410Z,170.82
2022-11-29T05:03:40.486Z,170.93
2022-11-29T05:06:24.292Z,187.13
2022-11-29T05:09:04.067Z,170.35
2022-11-29T05:11:31.196Z,202.98
2022-11-29T05:13:58.339Z,198.43
2022-11-29T05:16:43.567Z,177.93
2022-11-29T05:19:13.479Z,156.07
2022-11-29T05:21:51.927Z,171.60
2022-11-29T05:24:28.075Z,157.00
2022-11-29T05:26:58.186Z,163.48
2022-11-29T05:29:31.346Z,154.48
2022-11-29T05:32:01.542Z,147.82
2022-11-29T05:34:38.747Z,156.57
2022-11-29T05:37:24.627Z,153.07
2022-11-29T05:40:10.270Z,142.32
2022-11-29T05:45:17.816Z,160.55
2022-11-29T05:47:55.535Z,160.63
2022-11-29T05:50:25.495Z,167.73
2022-11-29T05:52:52.605Z,153.13
2022-11-29T05:55:42.252Z,168.32
2022-11-29T05:58:17.555Z,168.27
2022-11-29T06:03:19.736Z,140.15
2022-11-29T06:05:56.939Z,159.18
2022-11-29T06:08:29.396Z,155.73
2022-11-29T06:11:07.435Z,170.32
2022-11-29T06:13:34.542Z,159.50
2022-11-29T06:16:11.035Z,166.15
2022-11-29T06:18:58.835Z,147.88
2022-11-29T06:21:42.897Z,155.60
2022-11-29T06:24:26.136Z,157.77
2022-11-29T06:27:18.782Z,129.85
2022-11-29T06:30:06.871Z,144.18
2022-11-29T06:32:50.576Z,145.80
2022-11-29T06:35:34.515Z,130.90
2022-11-29T06:38:13.405Z,128.48
2022-11-29T06:40:43.896Z,124.25
2022-11-29T06:43:11.195Z,120.50
2022-11-29T06:45:38.541Z,118.18
2022-11-29T06:48:07.543Z,120.60
2022-11-29T06:50:40.902Z,113.15
2022-11-29T06:53:17.053Z,107.10
2022-11-29T06:56:01.307Z,109.30
2022-11-29T06:58:48.924Z,110.32
2022-11-29T07:01:51.402Z,104.05
2022-11-29T07:04:33.686Z,93.00
2022-11-29T07:07:01.076Z,97.47
2022-11-29T07:09:31.027Z,92.45
2022-11-29T07:11:58.307Z,86.55
2022-11-29T07:14:25.645Z,88.80
2022-11-29T07:17:11.470Z,93.15
2022-11-29T07:19:45.974Z,101.78
2022-11-29T07:22:18.952Z,86.95
2022-11-29T07:24:46.286Z,93.03
2022-11-29T07:27:21.385Z,96.47
2022-11-29T07:29:51.337Z,87.38
2022-11-29T07:32:21.297Z,86.07
2022-11-29T07:34:51.204Z,86.97
2022-11-29T07:37:24.212Z,95.78
2022-11-29T07:39:51.335Z,92.53
2022-11-29T07:42:26.154Z,97.85
2022-11-29T07:45:14.708Z,99.18
2022-11-29T07:47:41.831Z,92.32
2022-11-29T07:50:09.150Z,98.82
2022-11-29T07:52:36.592Z,88.80
2022-11-29T07:55:05.003Z,117.18
2022-11-29T07:57:32.195Z,107.82
2022-11-29T07:59:59.318Z,104.47
2022-11-29T08:02:27.199Z,101.60
2022-11-29T08:04:54.347Z,97.22
2022-11-29T08:07:21.540Z,99.03
2022-11-29T08:09:48.783Z,105.82
2022-11-29T08:12:15.908Z,96.00
2022-11-29T08:14:43.575Z,110.07
2022-11-29T08:17:11.129Z,97.53
2022-11-29T08:19:38.275Z,102.00
2022-11-29T08:22:05.408Z,104.55
2022-11-29T08:24:32.610Z,100.78
2022-11-29T08:26:59.735Z,89.15
2022-11-29T08:29:26.974Z,101.93
2022-11-29T08:31:54.434Z,103.53
2022-11-29T08:34:23.039Z,93.82
2022-11-29T08:36:50.904Z,95.35
2022-11-29T08:39:18.043Z,88.93
2022-11-29T08:41:45.252Z,103.90
2022-11-29T08:44:12.410Z,100.63
2022-11-29T08:46:58.346Z,94.95
2022-11-29T08:49:25.469Z,88.18
2022-11-29T08:52:15.999Z,84.45
2022-11-29T08:54:43.636Z,85.90
2022-11-29T08:57:41.596Z,84.68
2022-11-29T08:59:58.912Z,89.53
2022-11-29T09:02:26.084Z,80.25
2022-11-29T09:04:53.335Z,88.35
2022-11-29T09:07:20.531Z,87.07
2022-11-29T09:09:48.415Z,87.93
2022-11-29T09:12:15.547Z,86.30
2022-11-29T09:14:42.912Z,92.10
2022-11-29T09:17:10.204Z,83.25
2022-11-29T09:19:37.347Z,86.13
2022-11-29T09:22:04.504Z,80.72
2022-11-29T09:24:31.631Z,85.65
2022-11-29T09:26:58.819Z,79.90
2022-11-29T09:29:26.051Z,91.47
2022-11-29T09:31:53.576Z,76.95
2022-11-29T09:34:20.720Z,90.93
2022-11-29T09:36:48.183Z,80.95
2022-11-29T09:39:15.327Z,84.38
2022-11-29T09:42:01.290Z,78.53
2022-11-29T09:44:39.723Z,86.70
2022-11-29T09:47:19.135Z,88.88
2022-11-29T09:49:55.159Z,95.53
2022-11-29T09:52:38.101Z,80.88
2022-11-29T09:55:05.245Z,80.55
2022-11-29T09:57:33.264Z,87.30
2022-11-29T10:00:03.905Z,76.03
2022-11-29T10:02:45.409Z,85.50
2022-11-29T10:05:23.551Z,82.18
2022-11-29T10:07:54.856Z,90.65
2022-11-29T10:10:40.809Z,83.43
2022-11-29T10:13:15.857Z,86.25
2022-11-29T10:15:45.106Z,82.43
2022-11-29T10:18:17.695Z,78.85
2022-11-29T10:20:48.920Z,82.07
2022-11-29T10:23:16.660Z,77.22
2022-11-29T10:25:47.521Z,83.03
2022-11-29T10:28:19.348Z,77.10
2022-11-29T10:30:46.830Z,74.63
2022-11-29T10:33:16.796Z,74.22
2022-11-29T10:35:44.824Z,73.03
2022-11-29T10:38:30.141Z,69.68
2022-11-29T10:41:24.305Z,80.75
2022-11-29T10:43:52.072Z,84.70
2022-11-29T10:46:27.959Z,69.30
2022-11-29T10:48:55.255Z,69.13
2022-11-29T10:51:22.578Z,69.40
2022-11-29T10:53:50.236Z,66.30
2022-11-29T10:56:22.419Z,63.67
2022-11-29T10:59:05.235Z,67.75
2022-11-29T11:01:33.141Z,68.22
2022-11-29T11:04:03.343Z,73.75
2022-11-29T11:06:47.274Z,72.43
2022-11-29T11:09:17.419Z,65.50
2022-11-29T11:11:50.970Z,68.90
2022-11-29T11:14:24.184Z,71.78
2022-11-29T11:16:51.983Z,81.93
2022-11-29T11:19:30.058Z,71.28
2022-11-29T11:21:58.223Z,73.72
2022-11-29T11:24:29.949Z,61.38
2022-11-29T11:26:57.384Z,62.63
2022-11-29T11:29:26.248Z,71.95
2022-11-29T11:31:55.492Z,67.72
2022-11-29T11:34:36.755Z,68.22
2022-11-29T11:37:16.483Z,64.32
2022-11-29T11:39:44.324Z,65.38
2022-11-29T11:42:32.615Z,64.55
2022-11-29T11:45:00.705Z,68.32
2022-11-29T11:47:29.490Z,61.90
2022-11-29T11:50:03.399Z,65.60
2022-11-29T11:52:38.423Z,66.65
2022-11-29T11:55:19.812Z,61.40
2022-11-29T11:57:47.032Z,69.13
2022-11-29T12:01:02.553Z,65.05
2022-11-29T12:03:43.408Z,60.75
2022-11-29T12:06:16.538Z,59.17
2022-11-29T12:08:44.475Z,69.40
2022-11-29T12:11:12.553Z,68.28
2022-11-29T12:13:41.879Z,72.18
2022-11-29T12:16:11.834Z,65.25
2022-11-29T12:18:43.070Z,67.00
2022-11-29T12:21:18.462Z,76.28
2022-11-29T12:24:00.760Z,68.95
2022-11-29T12:26:58.394Z,73.90
2022-11-29T12:29:28.540Z,64.40
2022-11-29T12:32:06.473Z,59.25
2022-11-29T12:34:33.639Z,69.43
2022-11-29T12:37:19.449Z,66.80
2022-11-29T12:39:50.706Z,67.22
2022-11-29T12:42:29.560Z,56.65
2022-11-29T12:45:15.214Z,63.97
2022-11-29T12:47:57.247Z,54.28
2022-11-29T12:50:44.772Z,62.47
2022-11-29T12:53:21.252Z,74.00
2022-11-29T12:55:56.786Z,69.55
2022-11-29T12:58:23.963Z,59.85
2022-11-29T13:00:53.920Z,63.92
2022-11-29T13:03:34.893Z,59.78
2022-11-29T13:06:20.647Z,70.97
2022-11-29T13:11:33.917Z,60.22
2022-11-29T13:14:41.574Z,57.10
2022-11-29T13:17:02.289Z,76.32
2022-11-29T13:19:32.453Z,62.63
2022-11-29T13:22:02.492Z,65.82
2022-11-29T13:24:32.367Z,62.92
2022-11-29T13:27:02.081Z,63.63
2022-11-29T13:29:29.591Z,65.72
2022-11-29T13:31:57.205Z,62.63
2022-11-29T13:34:24.388Z,57.80
2022-11-29T13:37:03.507Z,68.55
2022-11-29T13:39:37.374Z,80.40
2022-11-29T13:42:07.556Z,89.88
2022-11-29T13:44:43.997Z,87.55
2022-11-29T13:47:18.425Z,98.30
2022-11-29T13:49:52.766Z,90.82
2022-11-29T13:52:28.913Z,95.68
2022-11-29T13:55:06.897Z,96.85
2022-11-29T14:00:43.940Z,90.97
2022-11-29T14:03:17.160Z,107.18
2022-11-29T14:05:44.963Z,101.65
2022-11-29T14:08:42.190Z,102.47
2022-11-29T14:11:19.901Z,123.80
2022-11-29T14:14:07.305Z,103.93
2022-11-29T14:16:39.956Z,108.13
2022-11-29T14:19:13.058Z,121.57
2022-11-29T14:21:58.712Z,108.60
2022-11-29T14:26:52.991Z,89.30
2022-11-29T14:29:39.075Z,91.13
2022-11-29T14:32:21.143Z,88.80
2022-11-29T14:34:50.870Z,81.95
2022-11-29T14:37:24.728Z,87.97
2022-11-29T14:39:55.300Z,95.22
2022-11-29T14:42:24.000Z,92.75
2022-11-29T14:44:52.345Z,97.20
2022-11-29T14:47:29.649Z,95.45
2022-11-29T14:49:57.720Z,91.28
2022-11-29T14:52:28.340Z,103.70
2022-11-29T14:54:58.219Z,91.82
2022-11-29T14:57:44.561Z,109.57
2022-11-29T15:00:12.636Z,109.13
2022-11-29T15:02:46.695Z,100.13
2022-11-29T15:05:13.982Z,115.88
2022-11-29T15:07:46.702Z,106.55
2022-11-29T15:10:18.502Z,105.47
2022-11-29T15:12:45.996Z,96.57
2022-11-29T15:15:31.661Z,78.25
2022-11-29T15:20:37.586Z,101.07
2022-11-29T15:23:07.363Z,98.72
2022-11-29T15:25:34.571Z,113.10
2022-11-29T15:28:03.420Z,97.30
2022-11-29T15:30:32.163Z,100.15
2022-11-29T15:33:00.583Z,88.72
2022-11-29T15:35:27.923Z,78.50
2022-11-29T15:37:55.502Z,102.03
2022-11-29T15:40:26.166Z,87.53
2022-11-29T15:43:02.031Z,88.10
2022-11-29T15:45:29.260Z,87.13
2022-11-29T15:47:56.791Z,71.90
2022-11-29T15:50:27.972Z,97.63
2022-11-29T15:52:58.620Z,67.95
2022-11-29T15:55:25.960Z,83.35
2022-11-29T15:57:55.204Z,80.15
2022-11-29T16:00:28.059Z,77.43
2022-11-29T16:03:01.914Z,82.65
2022-11-29T16:05:29.170Z,73.78
2022-11-29T16:08:04.448Z,73.95
2022-11-29T16:13:07.812Z,70.38
2022-11-29T16:15:36.817Z,70.40
2022-11-29T16:18:12.582Z,78.28
2022-11-29T16:20:40.279Z,64.97
2022-11-29T16:23:07.420Z,67.15
2022-11-29T16:25:37.789Z,71.93
2022-11-29T16:28:06.006Z,106.95
2022-11-29T16:30:33.382Z,85.13
2022-11-29T16:33:01.487Z,97.53
2022-11-29T16:35:29.480Z,94.65
2022-11-29T16:37:56.969Z,89.55
2022-11-29T16:40:28.532Z,87.38
2022-11-29T16:42:58.824Z,97.35
2022-11-29T16:45:34.165Z,91.90
2022-11-29T16:48:02.780Z,79.70
2022-11-29T16:50:30.995Z,83.78
2022-11-29T16:53:18.120Z,72.50
2022-11-29T16:55:45.290Z,82.10
2022-11-29T16:58:13.177Z,78.53
2022-11-29T17:00:40.621Z,81.68
2022-11-29T17:03:09.838Z,83.25
2022-11-29T17:05:41.589Z,88.43
2022-11-29T17:08:11.911Z,80.95
2022-11-29T17:10:39.035Z,71.25
2022-11-29T17:13:09.766Z,86.47
2022-11-29T17:15:37.076Z,81.03
2022-11-29T17:18:04.278Z,96.65
2022-11-29T17:20:31.402Z,99.10
2022-11-29T17:22:58.532Z,98.18
2022-11-29T17:25:25.706Z,93.72
2022-11-29T17:27:52.854Z,88.07
2022-11-29T17:30:20.107Z,89.15
2022-11-29T17:32:47.319Z,105.50
2022-11-29T17:35:15.463Z,99.88
2022-11-29T17:37:42.608Z,92.88
2022-11-29T17:40:10.030Z,89.38
2022-11-29T17:42:37.179Z,84.85
2022-11-29T17:45:04.509Z,95.75
2022-11-29T17:47:33.185Z,92.32
2022-11-29T17:50:00.361Z,106.25
2022-11-29T17:52:27.536Z,113.97
2022-11-29T17:54:54.695Z,102.07
2022-11-29T17:57:21.875Z,91.88
2022-11-29T17:59:49.107Z,99.38
2022-11-29T18:02:16.269Z,98.35
2022-11-29T18:04:44.420Z,100.65
2022-11-29T18:07:13.250Z,105.30
2022-11-29T18:09:40.408Z,83.63
2022-11-29T18:12:07.618Z,87.32
2022-11-29T18:14:36.276Z,93.63
2022-11-29T18:17:03.557Z,88.20
2022-11-29T18:19:31.356Z,81.82
2022-11-29T18:21:58.503Z,69.10
2022-11-29T18:24:25.747Z,78.25
2022-11-29T18:26:52.902Z,84.55
2022-11-29T18:29:20.688Z,81.20
2022-11-29T18:31:48.066Z,93.40
2022-11-29T18:34:15.500Z,97.53
2022-11-29T18:36:46.958Z,87.78
2022-11-29T18:39:15.181Z,79.38
2022-11-29T18:41:43.780Z,96.30
2022-11-29T18:44:12.513Z,81.60
2022-11-29T18:46:41.107Z,87.07
2022-11-29T18:49:09.183Z,83.97
2022-11-29T18:51:36.972Z,80.65
2022-11-29T18:54:04.535Z,73.68
2022-11-29T18:56:32.872Z,84.35
2022-11-29T18:59:01.082Z,88.05
2022-11-29T19:01:29.650Z,71.38
2022-11-29T19:03:58.395Z,94.97
2022-11-29T19:06:32.977Z,96.65
2022-11-29T19:09:04.783Z,94.13
2022-11-29T19:11:32.755Z,103.38
2022-11-29T19:14:01.487Z,95.20
2022-11-29T19:16:30.722Z,95.82
2022-11-29T19:18:59.215Z,92.38
2022-11-29T19:21:27.187Z,96.75
2022-11-29T19:23:55.837Z,85.75
2022-11-29T19:26:24.025Z,92.28
2022-11-29T19:28:51.206Z,80.05
2022-11-29T19:31:19.057Z,94.22
2022-11-29T19:33:46.636Z,84.03
2022-11-29T19:36:13.869Z,80.47
2022-11-29T19:38:41.296Z,79.13
2022-11-29T19:41:22.291Z,81.32
2022-11-29T19:43:49.605Z,76.95
2022-11-29T19:46:21.026Z,82.32
2022-11-29T19:48:48.315Z,82.82
2022-11-29T19:51:17.751Z,85.97
2022-11-29T19:53:45.937Z,83.03
2022-11-29T19:56:14.574Z,99.38
2022-11-29T19:58:42.045Z,82.50
2022-11-29T20:01:13.910Z,87.00
2022-11-29T20:03:41.570Z,87.63
2022-11-29T20:06:09.384Z,97.43
2022-11-29T20:08:37.326Z,90.88
2022-11-29T20:11:12.556Z,91.60
2022-11-29T20:16:09.788Z,90.63
2022-11-29T20:18:38.104Z,94.00
2022-11-29T20:21:05.247Z,96.28
2022-11-29T20:23:32.480Z,102.53
2022-11-29T20:25:59.690Z,107.30
2022-11-29T20:28:26.940Z,102.15
2022-11-29T20:30:54.530Z,89.72
2022-11-29T20:33:25.972Z,102.78
2022-11-29T20:36:19.199Z,94.03
2022-11-29T20:39:01.039Z,99.45
2022-11-29T20:41:32.817Z,95.35
2022-11-29T20:44:02.637Z,90.97
2022-11-29T20:46:30.408Z,88.32
2022-11-29T20:49:01.675Z,78.03
2022-11-29T20:51:41.211Z,81.20
2022-11-29T20:54:10.206Z,87.50
2022-11-29T20:56:37.370Z,87.22
2022-11-29T20:59:04.544Z,94.15
2022-11-29T21:01:31.752Z,86.35
2022-11-29T21:03:59.059Z,85.97
2022-11-29T21:06:26.400Z,91.18
2022-11-29T21:08:54.378Z,94.25
2022-11-29T21:11:21.770Z,94.97
2022-11-29T21:13:49.067Z,92.78
2022-11-29T21:16:16.473Z,89.85
2022-11-29T21:18:43.885Z,86.97
2022-11-29T21:21:11.039Z,76.18
2022-11-29T21:23:47.227Z,89.80
2022-11-29T21:26:17.296Z,87.65
2022-11-29T21:28:51.786Z,79.40
2022-11-29T21:31:19.297Z,78.40
2022-11-29T21:33:46.645Z,76.70
2022-11-29T21:36:13.992Z,78.95
2022-11-29T21:38:41.559Z,91.60
2022-11-29T21:41:08.785Z,93.30
2022-11-29T21:44:05.046Z,83.00
2022-11-29T21:46:23.168Z,91.60
2022-11-29T21:48:51.903Z,108.75
2022-11-29T21:51:19.172Z,99.40
2022-11-29T21:53:46.426Z,110.88
2022-11-29T21:56:13.738Z,101.30
2022-11-29T21:58:40.914Z,94.97
2022-11-29T22:01:08.433Z,94.32
2022-11-29T22:03:35.665Z,98.78
2022-11-29T22:06:06.550Z,89.70
2022-11-29T22:08:34.815Z,91.55
2022-11-29T22:11:05.520Z,104.72
2022-11-29T22:13:32.703Z,94.32
2022-11-29T22:16:06.968Z,91.05
2022-11-29T22:18:34.263Z,104.87
2022-11-29T22:21:05.559Z,105.03
2022-11-29T22:23:32.784Z,101.00
2022-11-29T22:26:06.826Z,104.93
2022-11-29T22:28:34.729Z,92.88
2022-11-29T22:31:06.205Z,95.55
2022-11-29T22:33:33.582Z,100.32
2022-11-29T22:36:05.125Z,132.85
2022-11-29T22:38:32.850Z,111.35
2022-11-29T22:41:01.043Z,96.72
2022-11-29T22:43:29.067Z,88.07
2022-11-29T22:45:56.255Z,86.85
2022-11-29T22:48:23.487Z,91.78
2022-11-29T22:50:50.656Z,88.88
2022-11-29T22:53:17.877Z,78.72
2022-11-29T22:55:45.043Z,78.82
2022-11-29T22:58:12.986Z,80.63
2022-11-29T23:00:44.007Z,91.20
2022-11-29T23:03:11.344Z,85.25
2022-11-29T23:05:38.672Z,91.18
2022-11-29T23:08:05.974Z,93.43
2022-11-29T23:10:33.100Z,84.22
2022-11-29T23:13:00.255Z,93.72
2022-11-29T23:15:27.466Z,97.38
2022-11-29T23:17:54.586Z,105.15
2022-11-29T23:20:21.725Z,92.05
2022-11-29T23:22:48.896Z,95.80
2022-11-29T23:25:16.045Z,100.70
2022-11-29T23:27:43.196Z,99.13
2022-11-29T23:30:10.568Z,100.43
2022-11-29T23:32:37.764Z,110.00
2022-11-29T23:35:05.012Z,97.40
2022-11-29T23:37:32.156Z,109.15
2022-11-29T23:39:59.392Z,104.90
2022-11-29T23:42:26.567Z,107.82
2022-11-29T23:44:53.686Z,87.80
2022-11-29T23:47:20.835Z,95.63
2022-11-29T23:49:47.974Z,86.70
2022-11-29T23:52:16.228Z,85.15
2022-11-29T23:54:43.420Z,84.03
2022-11-29T23:57:10.706Z,75.75
2022-11-29T23:59:37.833Z,76.20
